sensor_id;sensor_type;location;lat;lon;timestamp;pressure;altitude;pressure_sealevel;temperature;humidity
43741;BME280;29352;48.708;9.290;2023-11-21T00:00:14;97227.91;;;8.96;59.95
43741;BME280;29352;48.708;9.290;2023-11-21T00:02:41;97230.63;;;8.71;60.35
43741;BME280;29352;48.708;9.290;2023-11-21T00:05:11;97227.91;;;8.52;61.03
43741;BME280;29352;48.708;9.290;2023-11-21T00:07:39;97227.19;;;8.89;59.96
43741;BME280;29352;48.708;9.290;2023-11-21T00:10:07;97231.22;;;8.29;60.93
43741;BME280;29352;48.708;9.290;2023-11-21T00:12:34;97230.38;;;8.04;61.84
43741;BME280;29352;48.708;9.290;2023-11-21T00:15:00;97230.47;;;7.52;62.92
43741;BME280;29352;48.708;9.290;2023-11-21T00:17:26;97229.63;;;8.22;61.85
43741;BME280;29352;48.708;9.290;2023-11-21T00:19:52;97227.97;;;8.02;62.44
43741;BME280;29352;48.708;9.290;2023-11-21T00:22:18;97221.75;;;6.94;64.53
43741;BME280;29352;48.708;9.290;2023-11-21T00:24:45;97212.22;;;6.79;65.43
43741;BME280;29352;48.708;9.290;2023-11-21T00:27:10;97212.41;;;7.74;63.45
43741;BME280;29352;48.708;9.290;2023-11-21T00:29:36;97220.88;;;7.20;64.36
43741;BME280;29352;48.708;9.290;2023-11-21T00:32:01;97214.47;;;7.34;64.56
43741;BME280;29352;48.708;9.290;2023-11-21T00:34:28;97217.34;;;6.74;65.39
43741;BME280;29352;48.708;9.290;2023-11-21T00:36:53;97215.66;;;7.70;63.26
43741;BME280;29352;48.708;9.290;2023-11-21T00:39:18;97217.56;;;7.63;63.68
43741;BME280;29352;48.708;9.290;2023-11-21T00:41:44;97215.00;;;7.88;62.25
43741;BME280;29352;48.708;9.290;2023-11-21T00:44:10;97208.69;;;7.82;62.69
43741;BME280;29352;48.708;9.290;2023-11-21T00:46:36;97213.66;;;7.33;63.96
43741;BME280;29352;48.708;9.290;2023-11-21T00:49:02;97210.59;;;7.30;63.97
43741;BME280;29352;48.708;9.290;2023-11-21T00:51:29;97209.63;;;7.18;64.07
43741;BME280;29352;48.708;9.290;2023-11-21T00:53:55;97209.72;;;7.81;63.32
43741;BME280;29352;48.708;9.290;2023-11-21T00:56:22;97209.41;;;7.26;63.97
43741;BME280;29352;48.708;9.290;2023-11-21T00:58:47;97207.44;;;7.08;64.65
43741;BME280;29352;48.708;9.290;2023-11-21T01:01:16;97207.13;;;6.84;64.89
43741;BME280;29352;48.708;9.290;2023-11-21T01:03:42;97207.50;;;6.95;64.76
43741;BME280;29352;48.708;9.290;2023-11-21T01:06:07;97213.78;;;7.00;64.70
43741;BME280;29352;48.708;9.290;2023-11-21T01:08:34;97217.22;;;7.07;64.52
43741;BME280;29352;48.708;9.290;2023-11-21T01:11:01;97212.44;;;7.29;64.20
43741;BME280;29352;48.708;9.290;2023-11-21T01:13:26;97204.47;;;7.36;63.71
43741;BME280;29352;48.708;9.290;2023-11-21T01:15:55;97204.25;;;7.31;63.75
43741;BME280;29352;48.708;9.290;2023-11-21T01:18:21;97208.75;;;8.25;61.75
43741;BME280;29352;48.708;9.290;2023-11-21T01:20:47;97208.53;;;7.77;62.45
43741;BME280;29352;48.708;9.290;2023-11-21T01:23:13;97208.75;;;8.25;61.53
43741;BME280;29352;48.708;9.290;2023-11-21T01:25:39;97206.09;;;7.69;62.83
43741;BME280;29352;48.708;9.290;2023-11-21T01:28:04;97213.47;;;7.67;63.31
43741;BME280;29352;48.708;9.290;2023-11-21T01:30:30;97208.47;;;7.45;63.68
43741;BME280;29352;48.708;9.290;2023-11-21T01:32:58;97208.44;;;7.52;63.28
43741;BME280;29352;48.708;9.290;2023-11-21T01:35:24;97208.91;;;7.80;62.82
43741;BME280;29352;48.708;9.290;2023-11-21T01:37:49;97203.47;;;7.94;62.64
43741;BME280;29352;48.708;9.290;2023-11-21T01:40:15;97204.41;;;7.81;62.81
43741;BME280;29352;48.708;9.290;2023-11-21T01:42:41;97198.91;;;7.76;63.30
43741;BME280;29352;48.708;9.290;2023-11-21T01:45:09;97199.81;;;7.63;63.20
43741;BME280;29352;48.708;9.290;2023-11-21T01:47:38;97193.31;;;7.52;63.28
43741;BME280;29352;48.708;9.290;2023-11-21T01:50:06;97191.66;;;7.58;63.20
43741;BME280;29352;48.708;9.290;2023-11-21T01:52:38;97196.84;;;7.46;63.25
43741;BME280;29352;48.708;9.290;2023-11-21T01:55:07;97195.63;;;8.05;62.19
43741;BME280;29352;48.708;9.290;2023-11-21T01:57:35;97204.19;;;8.33;61.46
43741;BME280;29352;48.708;9.290;2023-11-21T02:00:03;97200.38;;;8.47;61.34
43741;BME280;29352;48.708;9.290;2023-11-21T02:02:43;97197.34;;;8.43;60.94
43741;BME280;29352;48.708;9.290;2023-11-21T02:05:19;97197.88;;;8.70;60.29
43741;BME280;29352;48.708;9.290;2023-11-21T02:07:47;97200.94;;;8.74;60.65
43741;BME280;29352;48.708;9.290;2023-11-21T02:10:14;97205.94;;;8.64;60.65
43741;BME280;29352;48.708;9.290;2023-11-21T02:12:41;97202.81;;;8.67;60.87
43741;BME280;29352;48.708;9.290;2023-11-21T02:15:08;97204.66;;;8.48;60.38
43741;BME280;29352;48.708;9.290;2023-11-21T02:17:41;97207.44;;;8.78;60.31
43741;BME280;29352;48.708;9.290;2023-11-21T02:20:12;97196.88;;;8.90;60.00
43741;BME280;29352;48.708;9.290;2023-11-21T02:22:50;97200.25;;;8.97;60.11
43741;BME280;29352;48.708;9.290;2023-11-21T02:25:30;97197.22;;;8.57;61.01
43741;BME280;29352;48.708;9.290;2023-11-21T02:28:01;97201.09;;;8.79;60.74
43741;BME280;29352;48.708;9.290;2023-11-21T02:30:27;97200.34;;;8.72;60.28
43741;BME280;29352;48.708;9.290;2023-11-21T02:32:54;97192.16;;;9.22;59.06
43741;BME280;29352;48.708;9.290;2023-11-21T02:35:22;97190.28;;;9.41;58.34
43741;BME280;29352;48.708;9.290;2023-11-21T02:37:48;97194.97;;;8.79;59.64
43741;BME280;29352;48.708;9.290;2023-11-21T02:40:14;97181.41;;;8.80;59.77
43741;BME280;29352;48.708;9.290;2023-11-21T02:42:43;97189.53;;;9.04;59.10
43741;BME280;29352;48.708;9.290;2023-11-21T02:45:10;97182.53;;;8.72;60.14
43741;BME280;29352;48.708;9.290;2023-11-21T02:47:39;97181.34;;;8.87;60.30
43741;BME280;29352;48.708;9.290;2023-11-21T02:50:06;97185.19;;;9.09;59.77
43741;BME280;29352;48.708;9.290;2023-11-21T02:52:33;97189.13;;;8.88;59.81
43741;BME280;29352;48.708;9.290;2023-11-21T02:55:00;97184.50;;;8.59;61.07
43741;BME280;29352;48.708;9.290;2023-11-21T02:57:26;97182.09;;;8.75;60.37
43741;BME280;29352;48.708;9.290;2023-11-21T02:59:51;97182.44;;;8.61;60.63
43741;BME280;29352;48.708;9.290;2023-11-21T03:02:17;97177.56;;;8.39;60.85
43741;BME280;29352;48.708;9.290;2023-11-21T03:04:42;97182.56;;;8.29;61.56
43741;BME280;29352;48.708;9.290;2023-11-21T03:07:09;97185.41;;;8.27;61.54
43741;BME280;29352;48.708;9.290;2023-11-21T03:09:35;97183.06;;;8.19;61.86
43741;BME280;29352;48.708;9.290;2023-11-21T03:12:01;97182.78;;;7.71;62.41
43741;BME280;29352;48.708;9.290;2023-11-21T03:14:27;97184.34;;;7.85;62.10
43741;BME280;29352;48.708;9.290;2023-11-21T03:16:52;97177.13;;;7.92;61.71
43741;BME280;29352;48.708;9.290;2023-11-21T03:19:17;97178.03;;;8.04;61.74
43741;BME280;29352;48.708;9.290;2023-11-21T03:21:43;97184.47;;;8.40;60.77
43741;BME280;29352;48.708;9.290;2023-11-21T03:24:08;97180.47;;;8.31;60.61
43741;BME280;29352;48.708;9.290;2023-11-21T03:26:34;97176.78;;;8.32;60.76
43741;BME280;29352;48.708;9.290;2023-11-21T03:29:00;97186.13;;;8.16;61.50
43741;BME280;29352;48.708;9.290;2023-11-21T03:31:25;97183.34;;;8.04;61.23
43741;BME280;29352;48.708;9.290;2023-11-21T03:33:52;97185.38;;;8.09;61.09
43741;BME280;29352;48.708;9.290;2023-11-21T03:36:19;97186.53;;;8.38;60.84
43741;BME280;29352;48.708;9.290;2023-11-21T03:38:44;97194.06;;;8.23;60.38
43741;BME280;29352;48.708;9.290;2023-11-21T03:41:10;97185.34;;;8.77;59.52
43741;BME280;29352;48.708;9.290;2023-11-21T03:43:36;97183.72;;;8.95;59.25
43741;BME280;29352;48.708;9.290;2023-11-21T03:46:02;97186.78;;;8.37;60.71
43741;BME280;29352;48.708;9.290;2023-11-21T03:48:28;97187.41;;;8.32;60.11
43741;BME280;29352;48.708;9.290;2023-11-21T03:50:54;97188.19;;;8.58;60.09
43741;BME280;29352;48.708;9.290;2023-11-21T03:53:19;97192.53;;;8.52;59.56
43741;BME280;29352;48.708;9.290;2023-11-21T03:55:45;97193.50;;;8.58;59.79
43741;BME280;29352;48.708;9.290;2023-11-21T03:58:11;97190.66;;;8.34;60.17
43741;BME280;29352;48.708;9.290;2023-11-21T04:00:36;97182.47;;;8.79;59.67
43741;BME280;29352;48.708;9.290;2023-11-21T04:03:01;97192.47;;;8.59;59.48
43741;BME280;29352;48.708;9.290;2023-11-21T04:05:27;97192.31;;;9.27;58.49
43741;BME280;29352;48.708;9.290;2023-11-21T04:07:53;97189.06;;;9.25;57.97
43741;BME280;29352;48.708;9.290;2023-11-21T04:10:18;97186.50;;;9.00;59.35
43741;BME280;29352;48.708;9.290;2023-11-21T04:12:44;97186.59;;;8.75;59.13
43741;BME280;29352;48.708;9.290;2023-11-21T04:15:11;97186.66;;;8.25;59.62
43741;BME280;29352;48.708;9.290;2023-11-21T04:17:38;97201.91;;;7.86;61.15
43741;BME280;29352;48.708;9.290;2023-11-21T04:20:05;97195.53;;;8.19;60.73
43741;BME280;29352;48.708;9.290;2023-11-21T04:22:34;97194.06;;;8.41;60.11
43741;BME280;29352;48.708;9.290;2023-11-21T04:25:02;97203.22;;;8.02;61.04
43741;BME280;29352;48.708;9.290;2023-11-21T04:27:27;97202.19;;;8.03;61.47
43741;BME280;29352;48.708;9.290;2023-11-21T04:29:53;97195.03;;;8.03;61.50
43741;BME280;29352;48.708;9.290;2023-11-21T04:32:18;97193.06;;;8.61;60.04
43741;BME280;29352;48.708;9.290;2023-11-21T04:34:44;97198.41;;;8.36;60.50
43741;BME280;29352;48.708;9.290;2023-11-21T04:37:09;97203.03;;;8.65;60.18
43741;BME280;29352;48.708;9.290;2023-11-21T04:39:35;97203.16;;;8.34;60.29
43741;BME280;29352;48.708;9.290;2023-11-21T04:42:01;97215.97;;;8.43;60.32
43741;BME280;29352;48.708;9.290;2023-11-21T04:44:26;97211.53;;;8.12;60.40
43741;BME280;29352;48.708;9.290;2023-11-21T04:46:52;97209.72;;;8.31;60.40
43741;BME280;29352;48.708;9.290;2023-11-21T04:49:17;97205.97;;;8.39;60.04
43741;BME280;29352;48.708;9.290;2023-11-21T04:51:42;97214.84;;;8.33;60.14
43741;BME280;29352;48.708;9.290;2023-11-21T04:54:08;97207.75;;;8.63;59.42
43741;BME280;29352;48.708;9.290;2023-11-21T04:56:34;97213.44;;;8.05;60.50
43741;BME280;29352;48.708;9.290;2023-11-21T04:58:59;97212.94;;;8.40;59.91
43741;BME280;29352;48.708;9.290;2023-11-21T05:01:25;97221.41;;;8.05;60.61
43741;BME280;29352;48.708;9.290;2023-11-21T05:03:50;97228.56;;;8.29;59.70
43741;BME280;29352;48.708;9.290;2023-11-21T05:06:16;97220.66;;;8.41;59.71
43741;BME280;29352;48.708;9.290;2023-11-21T05:08:41;97220.53;;;8.36;59.78
43741;BME280;29352;48.708;9.290;2023-11-21T05:11:07;97222.41;;;8.54;59.59
43741;BME280;29352;48.708;9.290;2023-11-21T05:13:34;97222.44;;;8.29;59.94
43741;BME280;29352;48.708;9.290;2023-11-21T05:15:59;97218.56;;;8.50;59.66
43741;BME280;29352;48.708;9.290;2023-11-21T05:18:25;97223.13;;;8.18;60.36
43741;BME280;29352;48.708;9.290;2023-11-21T05:20:55;97237.00;;;8.20;60.86
43741;BME280;29352;48.708;9.290;2023-11-21T05:23:21;97222.63;;;8.71;59.16
43741;BME280;29352;48.708;9.290;2023-11-21T05:25:46;97228.47;;;8.61;59.13
43741;BME280;29352;48.708;9.290;2023-11-21T05:28:13;97237.44;;;7.92;60.90
43741;BME280;29352;48.708;9.290;2023-11-21T05:30:38;97236.75;;;8.03;61.04
43741;BME280;29352;48.708;9.290;2023-11-21T05:33:05;97247.81;;;7.62;61.51
43741;BME280;29352;48.708;9.290;2023-11-21T05:35:30;97249.72;;;7.86;61.24
43741;BME280;29352;48.708;9.290;2023-11-21T05:37:56;97245.09;;;8.06;60.95
43741;BME280;29352;48.708;9.290;2023-11-21T05:40:21;97242.22;;;8.08;60.97
43741;BME280;29352;48.708;9.290;2023-11-21T05:42:47;97247.47;;;7.45;61.65
43741;BME280;29352;48.708;9.290;2023-11-21T05:45:13;97245.34;;;7.67;61.66
43741;BME280;29352;48.708;9.290;2023-11-21T05:47:42;97256.81;;;8.24;60.60
43741;BME280;29352;48.708;9.290;2023-11-21T05:50:12;97248.56;;;7.69;61.41
43741;BME280;29352;48.708;9.290;2023-11-21T05:52:43;97250.47;;;8.25;60.28
43741;BME280;29352;48.708;9.290;2023-11-21T05:55:10;97251.03;;;7.77;61.17
43741;BME280;29352;48.708;9.290;2023-11-21T05:57:37;97250.84;;;8.03;60.84
43741;BME280;29352;48.708;9.290;2023-11-21T06:00:05;97242.81;;;8.35;59.62
43741;BME280;29352;48.708;9.290;2023-11-21T06:02:55;97249.72;;;7.86;60.95
43741;BME280;29352;48.708;9.290;2023-11-21T06:05:24;97257.28;;;8.14;59.89
43741;BME280;29352;48.708;9.290;2023-11-21T06:07:51;97262.84;;;8.13;60.25
43741;BME280;29352;48.708;9.290;2023-11-21T06:10:19;97260.50;;;8.48;59.48
43741;BME280;29352;48.708;9.290;2023-11-21T06:12:45;97267.34;;;8.37;59.67
43741;BME280;29352;48.708;9.290;2023-11-21T06:15:11;97267.78;;;8.34;60.18
43741;BME280;29352;48.708;9.290;2023-11-21T06:17:39;97273.63;;;8.18;60.93
43741;BME280;29352;48.708;9.290;2023-11-21T06:20:08;97277.25;;;8.48;59.37
43741;BME280;29352;48.708;9.290;2023-11-21T06:22:38;97276.59;;;8.03;59.94
43741;BME280;29352;48.708;9.290;2023-11-21T06:25:05;97281.38;;;7.94;60.70
43741;BME280;29352;48.708;9.290;2023-11-21T06:27:33;97280.28;;;8.02;60.63
43741;BME280;29352;48.708;9.290;2023-11-21T06:30:00;97280.25;;;8.59;59.21
43741;BME280;29352;48.708;9.290;2023-11-21T06:32:25;97288.81;;;8.36;59.87
43741;BME280;29352;48.708;9.290;2023-11-21T06:34:51;97289.75;;;7.53;61.91
43741;BME280;29352;48.708;9.290;2023-11-21T06:37:19;97291.03;;;7.82;61.32
43741;BME280;29352;48.708;9.290;2023-11-21T06:39:48;97291.56;;;8.29;60.13
43741;BME280;29352;48.708;9.290;2023-11-21T06:42:15;97298.09;;;8.01;60.78
43741;BME280;29352;48.708;9.290;2023-11-21T06:44:41;97303.53;;;8.38;60.29
43741;BME280;29352;48.708;9.290;2023-11-21T06:47:07;97303.53;;;8.38;60.56
43741;BME280;29352;48.708;9.290;2023-11-21T06:49:32;97305.75;;;8.41;60.27
43741;BME280;29352;48.708;9.290;2023-11-21T06:51:58;97305.97;;;8.65;60.30
43741;BME280;29352;48.708;9.290;2023-11-21T06:54:24;97308.41;;;8.16;60.81
43741;BME280;29352;48.708;9.290;2023-11-21T06:56:50;97311.59;;;8.57;60.47
43741;BME280;29352;48.708;9.290;2023-11-21T06:59:15;97313.59;;;8.36;60.96
43741;BME280;29352;48.708;9.290;2023-11-21T07:01:41;97319.72;;;8.37;60.68
43741;BME280;29352;48.708;9.290;2023-11-21T07:04:07;97320.03;;;8.47;60.90
43741;BME280;29352;48.708;9.290;2023-11-21T07:06:34;97318.19;;;8.47;60.21
43741;BME280;29352;48.708;9.290;2023-11-21T07:09:00;97323.41;;;8.61;60.67
43741;BME280;29352;48.708;9.290;2023-11-21T07:11:27;97330.25;;;9.18;59.55
43741;BME280;29352;48.708;9.290;2023-11-21T07:13:52;97326.75;;;8.99;59.82
43741;BME280;29352;48.708;9.290;2023-11-21T07:16:18;97331.88;;;9.19;59.06
43741;BME280;29352;48.708;9.290;2023-11-21T07:18:44;97330.78;;;8.84;60.04
43741;BME280;29352;48.708;9.290;2023-11-21T07:21:10;97336.63;;;8.74;60.26
43741;BME280;29352;48.708;9.290;2023-11-21T07:23:41;97336.84;;;8.91;59.70
43741;BME280;29352;48.708;9.290;2023-11-21T07:26:06;97330.50;;;8.67;60.50
43741;BME280;29352;48.708;9.290;2023-11-21T07:28:34;97335.72;;;8.80;60.20
43741;BME280;29352;48.708;9.290;2023-11-21T07:31:01;97333.44;;;9.27;59.57
43741;BME280;29352;48.708;9.290;2023-11-21T07:33:27;97336.47;;;9.31;59.70
43741;BME280;29352;48.708;9.290;2023-11-21T07:35:52;97337.25;;;9.49;59.49
43741;BME280;29352;48.708;9.290;2023-11-21T07:38:18;97341.63;;;9.62;59.45
43741;BME280;29352;48.708;9.290;2023-11-21T07:40:43;97346.53;;;8.60;61.01
43741;BME280;29352;48.708;9.290;2023-11-21T07:43:09;97346.44;;;8.67;61.11
43741;BME280;29352;48.708;9.290;2023-11-21T07:45:35;97358.59;;;8.31;61.76
43741;BME280;29352;48.708;9.290;2023-11-21T07:48:01;97363.28;;;9.11;60.70
43741;BME280;29352;48.708;9.290;2023-11-21T07:50:28;97355.66;;;8.96;60.44
43741;BME280;29352;48.708;9.290;2023-11-21T07:52:54;97362.25;;;9.12;60.77
43741;BME280;29352;48.708;9.290;2023-11-21T07:55:20;97362.09;;;8.88;61.29
43741;BME280;29352;48.708;9.290;2023-11-21T07:57:46;97369.72;;;9.03;61.96
43741;BME280;29352;48.708;9.290;2023-11-21T08:00:12;97373.03;;;8.73;61.92
43741;BME280;29352;48.708;9.290;2023-11-21T08:02:41;97363.59;;;9.03;61.11
43741;BME280;29352;48.708;9.290;2023-11-21T08:05:12;97372.75;;;9.07;60.71
43741;BME280;29352;48.708;9.290;2023-11-21T08:07:38;97372.94;;;9.30;60.68
43741;BME280;29352;48.708;9.290;2023-11-21T08:10:03;97378.53;;;9.22;60.72
43741;BME280;29352;48.708;9.290;2023-11-21T08:12:32;97371.97;;;9.24;60.61
43741;BME280;29352;48.708;9.290;2023-11-21T08:14:58;97379.19;;;9.17;60.88
43741;BME280;29352;48.708;9.290;2023-11-21T08:17:24;97380.25;;;9.35;59.73
43741;BME280;29352;48.708;9.290;2023-11-21T08:19:49;97383.47;;;9.18;60.43
43741;BME280;29352;48.708;9.290;2023-11-21T08:22:16;97381.03;;;8.98;60.93
43741;BME280;29352;48.708;9.290;2023-11-21T08:24:43;97384.69;;;8.97;61.35
43741;BME280;29352;48.708;9.290;2023-11-21T08:27:09;97382.16;;;8.52;62.78
43741;BME280;29352;48.708;9.290;2023-11-21T08:29:35;97379.88;;;8.31;62.42
43741;BME280;29352;48.708;9.290;2023-11-21T08:32:04;97384.38;;;9.12;60.51
43741;BME280;29352;48.708;9.290;2023-11-21T08:34:30;97390.44;;;8.69;61.70
43741;BME280;29352;48.708;9.290;2023-11-21T08:36:55;97386.59;;;8.65;62.09
43741;BME280;29352;48.708;9.290;2023-11-21T08:39:22;97392.66;;;8.79;61.77
43741;BME280;29352;48.708;9.290;2023-11-21T08:41:49;97396.41;;;9.15;62.32
43741;BME280;29352;48.708;9.290;2023-11-21T08:44:16;97394.25;;;9.30;60.63
43741;BME280;29352;48.708;9.290;2023-11-21T08:46:43;97399.56;;;9.30;61.77
43741;BME280;29352;48.708;9.290;2023-11-21T08:49:11;97390.75;;;9.30;61.65
43741;BME280;29352;48.708;9.290;2023-11-21T08:51:37;97395.97;;;9.18;61.47
43741;BME280;29352;48.708;9.290;2023-11-21T08:54:03;97393.44;;;9.30;60.96
43741;BME280;29352;48.708;9.290;2023-11-21T08:56:32;97394.09;;;9.43;59.55
43741;BME280;29352;48.708;9.290;2023-11-21T08:58:58;97403.59;;;9.14;61.33
43741;BME280;29352;48.708;9.290;2023-11-21T09:01:27;97400.00;;;9.27;61.00
43741;BME280;29352;48.708;9.290;2023-11-21T09:03:53;97399.19;;;9.27;61.41
43741;BME280;29352;48.708;9.290;2023-11-21T09:06:18;97402.09;;;9.99;59.41
43741;BME280;29352;48.708;9.290;2023-11-21T09:08:44;97410.38;;;9.90;59.32
43741;BME280;29352;48.708;9.290;2023-11-21T09:11:10;97419.28;;;9.66;60.38
43741;BME280;29352;48.708;9.290;2023-11-21T09:13:35;97399.59;;;9.67;60.45
43741;BME280;29352;48.708;9.290;2023-11-21T09:16:01;97411.28;;;10.03;58.59
43741;BME280;29352;48.708;9.290;2023-11-21T09:18:27;97415.81;;;9.65;60.15
43741;BME280;29352;48.708;9.290;2023-11-21T09:20:53;97416.84;;;9.64;60.85
43741;BME280;29352;48.708;9.290;2023-11-21T09:23:18;97410.22;;;10.04;61.07
43741;BME280;29352;48.708;9.290;2023-11-21T09:25:43;97408.88;;;10.13;59.81
43741;BME280;29352;48.708;9.290;2023-11-21T09:28:11;97414.78;;;10.33;59.99
43741;BME280;29352;48.708;9.290;2023-11-21T09:30:38;97407.69;;;10.39;59.21
43741;BME280;29352;48.708;9.290;2023-11-21T09:33:04;97414.38;;;11.49;59.12
43741;BME280;29352;48.708;9.290;2023-11-21T09:35:36;97415.31;;;12.06;58.73
43741;BME280;29352;48.708;9.290;2023-11-21T09:38:03;97411.81;;;12.63;57.62
43741;BME280;29352;48.708;9.290;2023-11-21T09:40:30;97406.63;;;12.73;54.86
43741;BME280;29352;48.708;9.290;2023-11-21T09:42:57;97416.59;;;11.52;55.06
43741;BME280;29352;48.708;9.290;2023-11-21T09:48:00;97421.28;;;11.85;54.74
43741;BME280;29352;48.708;9.290;2023-11-21T09:50:27;97420.94;;;11.81;54.30
43741;BME280;29352;48.708;9.290;2023-11-21T09:53:08;97418.63;;;12.25;55.67
43741;BME280;29352;48.708;9.290;2023-11-21T09:55:42;97431.31;;;11.54;54.80
43741;BME280;29352;48.708;9.290;2023-11-21T09:58:10;97433.31;;;11.99;55.23
43741;BME280;29352;48.708;9.290;2023-11-21T10:00:44;97432.69;;;11.80;54.62
43741;BME280;29352;48.708;9.290;2023-11-21T10:03:14;97436.88;;;11.06;54.29
43741;BME280;29352;48.708;9.290;2023-11-21T10:05:42;97437.66;;;10.95;57.38
43741;BME280;29352;48.708;9.290;2023-11-21T10:08:12;97439.00;;;11.27;55.66
43741;BME280;29352;48.708;9.290;2023-11-21T10:10:42;97439.00;;;11.51;55.31
43741;BME280;29352;48.708;9.290;2023-11-21T10:13:12;97440.06;;;10.73;56.48
43741;BME280;29352;48.708;9.290;2023-11-21T10:15:41;97444.66;;;10.96;56.07
43741;BME280;29352;48.708;9.290;2023-11-21T10:18:09;97440.28;;;10.71;55.57
43741;BME280;29352;48.708;9.290;2023-11-21T10:20:35;97436.78;;;10.59;55.91
43741;BME280;29352;48.708;9.290;2023-11-21T10:23:03;97439.66;;;10.99;55.51
43741;BME280;29352;48.708;9.290;2023-11-21T10:25:30;97440.44;;;10.76;57.65
43741;BME280;29352;48.708;9.290;2023-11-21T10:28:01;97446.78;;;10.63;57.67
43741;BME280;29352;48.708;9.290;2023-11-21T10:30:38;97447.28;;;10.84;57.76
43741;BME280;29352;48.708;9.290;2023-11-21T10:33:05;97445.31;;;10.49;58.19
43741;BME280;29352;48.708;9.290;2023-11-21T10:35:48;97450.47;;;10.51;58.68
43741;BME280;29352;48.708;9.290;2023-11-21T10:38:20;97444.84;;;10.22;58.95
43741;BME280;29352;48.708;9.290;2023-11-21T10:40:49;97453.13;;;9.40;60.66
43741;BME280;29352;48.708;9.290;2023-11-21T10:43:15;97451.06;;;10.34;60.31
43741;BME280;29352;48.708;9.290;2023-11-21T10:45:42;97454.63;;;10.28;59.76
43741;BME280;29352;48.708;9.290;2023-11-21T10:48:09;97451.53;;;10.13;61.07
43741;BME280;29352;48.708;9.290;2023-11-21T10:50:37;97453.44;;;10.24;59.56
43741;BME280;29352;48.708;9.290;2023-11-21T10:53:04;97450.06;;;10.17;59.11
43741;BME280;29352;48.708;9.290;2023-11-21T10:55:34;97449.34;;;10.70;58.44
43741;BME280;29352;48.708;9.290;2023-11-21T10:58:01;97456.69;;;10.26;59.37
43741;BME280;29352;48.708;9.290;2023-11-21T11:00:31;97457.63;;;9.83;59.97
43741;BME280;29352;48.708;9.290;2023-11-21T11:02:58;97453.19;;;10.44;59.18
43741;BME280;29352;48.708;9.290;2023-11-21T11:05:27;97455.28;;;9.75;60.79
43741;BME280;29352;48.708;9.290;2023-11-21T11:08:06;97448.03;;;10.31;59.36
43741;BME280;29352;48.708;9.290;2023-11-21T11:10:34;97445.84;;;10.09;58.92
43741;BME280;29352;48.708;9.290;2023-11-21T11:13:00;97459.50;;;10.31;58.99
43741;BME280;29352;48.708;9.290;2023-11-21T11:15:27;97457.28;;;10.28;59.91
43741;BME280;29352;48.708;9.290;2023-11-21T11:17:54;97451.09;;;10.16;59.58
43741;BME280;29352;48.708;9.290;2023-11-21T11:20:33;97459.81;;;10.05;60.11
43741;BME280;29352;48.708;9.290;2023-11-21T11:23:19;97458.03;;;9.62;60.84
43741;BME280;29352;48.708;9.290;2023-11-21T11:26:20;97451.72;;;10.00;60.14
43741;BME280;29352;48.708;9.290;2023-11-21T11:29:14;97463.19;;;9.57;61.79
43741;BME280;29352;48.708;9.290;2023-11-21T11:32:11;97458.00;;;9.68;60.87
43741;BME280;29352;48.708;9.290;2023-11-21T11:37:26;97461.09;;;9.84;62.33
43741;BME280;29352;48.708;9.290;2023-11-21T11:39:52;97462.66;;;9.30;63.41
43741;BME280;29352;48.708;9.290;2023-11-21T11:42:21;97463.19;;;9.57;62.32
43741;BME280;29352;48.708;9.290;2023-11-21T11:44:49;97467.41;;;9.71;61.83
43741;BME280;29352;48.708;9.290;2023-11-21T11:47:22;97461.31;;;10.01;61.72
43741;BME280;29352;48.708;9.290;2023-11-21T11:52:43;97461.63;;;9.92;62.25
43741;BME280;29352;48.708;9.290;2023-11-21T11:55:12;97462.78;;;10.15;61.54
43741;BME280;29352;48.708;9.290;2023-11-21T11:57:41;97457.78;;;10.55;60.52
43741;BME280;29352;48.708;9.290;2023-11-21T12:00:13;97462.09;;;10.38;61.01
43741;BME280;29352;48.708;9.290;2023-11-21T12:02:49;97458.81;;;10.54;58.88
43741;BME280;29352;48.708;9.290;2023-11-21T12:05:19;97460.94;;;10.46;60.60
43741;BME280;29352;48.708;9.290;2023-11-21T12:07:53;97461.13;;;10.93;59.11
43741;BME280;29352;48.708;9.290;2023-11-21T12:10:24;97465.28;;;10.88;60.07
43741;BME280;29352;48.708;9.290;2023-11-21T12:12:55;97470.06;;;10.98;58.38
43741;BME280;29352;48.708;9.290;2023-11-21T12:15:23;97467.84;;;10.53;58.49
43741;BME280;29352;48.708;9.290;2023-11-21T12:17:51;97463.91;;;10.98;57.78
43741;BME280;29352;48.708;9.290;2023-11-21T12:20:23;97468.47;;;10.67;58.50
43741;BME280;29352;48.708;9.290;2023-11-21T12:22:52;97474.00;;;10.35;60.52
43741;BME280;29352;48.708;9.290;2023-11-21T12:25:24;97465.25;;;10.65;60.60
43741;BME280;29352;48.708;9.290;2023-11-21T12:27:55;97468.66;;;9.68;60.64
43741;BME280;29352;48.708;9.290;2023-11-21T12:30:23;97463.56;;;10.94;58.25
43741;BME280;29352;48.708;9.290;2023-11-21T12:32:54;97468.59;;;11.14;58.59
43741;BME280;29352;48.708;9.290;2023-11-21T12:35:23;97475.25;;;11.47;57.66
43741;BME280;29352;48.708;9.290;2023-11-21T12:37:51;97485.50;;;10.54;59.25
43741;BME280;29352;48.708;9.290;2023-11-21T12:40:19;97474.25;;;10.64;59.70
43741;BME280;29352;48.708;9.290;2023-11-21T12:42:47;97483.75;;;10.30;60.71
43741;BME280;29352;48.708;9.290;2023-11-21T12:47:47;97488.81;;;10.50;61.05
43741;BME280;29352;48.708;9.290;2023-11-21T12:50:20;97493.56;;;10.48;59.17
43741;BME280;29352;48.708;9.290;2023-11-21T12:52:51;97493.91;;;9.41;61.60
43741;BME280;29352;48.708;9.290;2023-11-21T12:55:20;97489.44;;;9.10;62.26
43741;BME280;29352;48.708;9.290;2023-11-21T12:57:52;97484.28;;;9.65;60.66
43741;BME280;29352;48.708;9.290;2023-11-21T13:00:37;97496.22;;;10.48;62.81
43741;BME280;29352;48.708;9.290;2023-11-21T13:03:10;97484.91;;;10.82;61.74
43741;BME280;29352;48.708;9.290;2023-11-21T13:05:44;97483.16;;;10.88;60.32
43741;BME280;29352;48.708;9.290;2023-11-21T13:08:12;97471.81;;;11.16;60.16
43741;BME280;29352;48.708;9.290;2023-11-21T13:10:40;97476.88;;;11.59;58.10
43741;BME280;29352;48.708;9.290;2023-11-21T13:13:11;97474.50;;;11.16;59.61
43741;BME280;29352;48.708;9.290;2023-11-21T13:15:48;97477.72;;;10.53;60.88
43741;BME280;29352;48.708;9.290;2023-11-21T13:18:14;97481.28;;;10.88;60.08
43741;BME280;29352;48.708;9.290;2023-11-21T13:20:41;97484.25;;;10.38;60.29